deformed-offering

Nearby METAR Reports

 

KNUQ - Moffett Nas/Mtn, California, USA
Distance from station: N 9mi, 14km
Updated: Thu, 19-Apr-2018 5:56pm PDT
Clear
Clear
 Wind from W
Wind: W 10 mph , 17 km/h
Temperature: 64°F , 18°C
Dew Point: 43°F , 6°C
Humidity: 46%
Barometer: 30.09 inHg , 1019 hPa
Clouds: Clear
Visibility: 10 miles , 16 km
2018/04/20 00:56 KNUQ 200056Z 26009KT 10SM CLR 18/06 A3009 RMK AO2 SLP193 T01780061
KSJC - San Jose, California, USA
Distance from station: NE 9mi, 14km
Updated: Thu, 19-Apr-2018 5:53pm PDT
Few Clouds
Few Clouds
 Wind from NW
Wind: NW 17 mph , 28 km/h
Temperature: 64°F , 18°C
Dew Point: 45°F , 7°C
Humidity: 49%
Barometer: 30.09 inHg , 1019 hPa
Clouds: Few Clouds
Visibility: 10 miles , 16 km
Cloud details: Few Clouds 2400 ft
Few Clouds 3200 ft
Few Clouds 5000 ft
2018/04/20 00:53 KSJC 200053Z 32015KT 10SM FEW024 FEW032 FEW050 18/07 A3009 RMK AO2 SLP187 T01780072
 
KRHV - San Jose/Reid, California, USA
Distance from station: ENE 12mi, 19km
Updated: Thu, 19-Apr-2018 5:48pm PDT
Few Clouds
Few Clouds
 Wind from NNW
Wind: NNW 14 mph , 22 km/h
Temperature: 64°F , 18°C
Dew Point: 45°F , 7°C
Humidity: 49%
Barometer: 30.07 inHg , 1018.3 hPa
Clouds: Few Clouds
Visibility: 10 miles , 16 km
Cloud details: Few Clouds 4000 ft
2018/04/20 00:48 KRHV 200048Z 33012KT 10SM FEW040 18/07 A3007
KPAO - Palo Alto, California, USA
Distance from station: NNW 14mi, 23km
Updated: Thu, 19-Apr-2018 5:47pm PDT

 
Visibility: 2 miles , 3 km
2018/04/20 00:47 KPAO 200047Z 32008KTKT 10SM FEW040 A3009
 
KSQL - San Carlos Airpo, California, USA
Distance from station: NW 21mi, 34km
Updated: Thu, 19-Apr-2018 5:47pm PDT
Few Clouds
Few Clouds
 Wind from W
Wind: W 14 mph , 22 km/h, Gust: 22 mph , 35 km/h
Temperature: 59°F , 15°C
Dew Point: 45°F , 7°C
Humidity: 59%
Barometer: 30.10 inHg , 1019.3 hPa
Clouds: Few Clouds
Visibility: 10 miles , 16 km
Cloud details: Few Clouds 3000 ft
2018/04/20 00:47 KSQL 200047Z 28012G19KT 10SM FEW030 15/07 A3010
KE16 - San Martin, California, USA
Distance from station: ESE 27mi, 43km
Updated: Thu, 19-Apr-2018 6:15pm PDT
Clear
Clear
 Wind from NW
Wind: NW 12 mph , 19 km/h, Gust: 21 mph , 33 km/h
Temperature: 64°F , 18°C
Dew Point: 39°F , 4°C
Humidity: 40%
Barometer: 30.08 inHg , 1018.6 hPa
Clouds: Clear
Visibility: 10 miles , 16 km
2018/04/20 01:15 KE16 200115Z AUTO 31010G18KT 10SM CLR 18/04 A3008 RMK AO2
 
KWVI - Watsonville, California, USA
Distance from station: SSE 27mi, 44km
Updated: Thu, 19-Apr-2018 5:53pm PDT
Clear
Clear
 Wind from NW
Wind: NW 7 mph , 11 km/h
Temperature: 68°F , 20°C
Dew Point: 43°F , 6°C
Humidity: 40%
Barometer: 30.07 inHg , 1018.3 hPa
Clouds: Clear
Visibility: 10 miles , 16 km
2018/04/20 00:53 KWVI 200053Z AUTO 32006KT 10SM CLR 20/06 A3007 RMK AO2 SLP182 T02000061 TSNO
KHWD - Hayward, California, USA
Distance from station: N 28mi, 44km
Updated: Thu, 19-Apr-2018 5:54pm PDT
Clear
Clear
 Wind from W
Wind: W 15 mph , 24 km/h
Temperature: 61°F , 16°C
Dew Point: 45°F , 7°C
Humidity: 55%
Barometer: 30.10 inHg , 1019.3 hPa
Clouds: Clear
Visibility: 10 miles , 16 km
2018/04/20 00:54 KHWD 200054Z 28013KT 10SM CLR 16/07 A3010 RMK AO2 SLP201 T01560072
 
KSFO - San Francisco, California, USA
Distance from station: NW 30mi, 49km
Updated: Thu, 19-Apr-2018 5:56pm PDT
Few Clouds
Few Clouds
 Wind from W
Wind: W 26 mph , 43 km/h, Gust: 35 mph , 56 km/h
Temperature: 59°F , 15°C
Dew Point: 46°F , 8°C
Humidity: 63%
Barometer: 30.10 inHg , 1019.3 hPa
Clouds: Few Clouds
Visibility: 10 miles , 16 km
Cloud details: Few Clouds 1300 ft
Few Clouds 3000 ft
2018/04/20 00:56 KSFO 200056Z 27023G30KT 10SM FEW013 FEW030 15/08 A3010 RMK AO2 PK WND 27030/0024 SLP191 T01500083
KHAF - Half Moon Bay, California, USA
Distance from station: WNW 31mi, 50km
Updated: Thu, 19-Apr-2018 6:20pm PDT
Haze, Mostly cloudy
Haze, Mostly cloudy
 Wind from NNW
Wind: NNW 18 mph , 30 km/h, Gust: 25 mph , 41 km/h
Temperature: 54°F , 12°C
Dew Point: 48°F , 9°C
Humidity: 82%
Barometer: 30.13 inHg , 1020.3 hPa
Summary: Haze
Clouds: Mostly Cloudy
Visibility: 5 miles , 8 km
Cloud details: Mostly Cloudy 1500 ft
2018/04/20 01:20 KHAF 200120Z AUTO 34016G22KT 5SM HZ BKN015 12/09 A3013 RMK AO2
 
KOAK - Oakland, California, USA
Distance from station: NNW 31mi, 50km
Updated: Thu, 19-Apr-2018 5:53pm PDT
Few Clouds
Few Clouds
 Wind from W
Wind: W 16 mph , 26 km/h
Temperature: 61°F , 16°C
Dew Point: 48°F , 9°C
Humidity: 63%
Barometer: 30.09 inHg , 1019 hPa
Clouds: Few Clouds
Visibility: 10 miles , 16 km
Cloud details: Few Clouds 2500 ft
2018/04/20 00:53 KOAK 200053Z 28014KT 10SM FEW025 16/09 A3009 RMK AO2 SLP189 T01610089
KLVK - Livermore, California, USA
Distance from station: NNE 31mi, 51km
Updated: Thu, 19-Apr-2018 5:53pm PDT
Clear
Clear
 Wind from WSW
Wind: WSW 10 mph , 17 km/h
Temperature: 63°F , 17°C
Dew Point: 46°F , 8°C
Humidity: 56%
Barometer: 30.06 inHg , 1017.9 hPa
Clouds: Clear
Visibility: 10 miles , 16 km
2018/04/20 00:53 KLVK 200053Z 25009KT 10SM CLR 17/08 A3006 RMK AO2 SLP180 T01720078
 
KCVH - Hollister Muni, California, USA
Distance from station: SE 42mi, 68km
Updated: Thu, 19-Apr-2018 6:15pm PDT
Clear
Clear
 Wind from WSW
Wind: WSW 14 mph , 22 km/h, Gust: 22 mph , 35 km/h
Temperature: 61°F , 16°C
Dew Point: 46°F , 8°C
Humidity: 59%
Barometer: 30.07 inHg , 1018.3 hPa
Clouds: Clear
Visibility: 9 miles , 14 km
2018/04/20 01:15 KCVH 200115Z AUTO 24012G19KT 9SM CLR 16/08 A3007 RMK A01
KSNS - Salinas, California, USA
Distance from station: SSE 48mi, 77km
Updated: Thu, 19-Apr-2018 5:53pm PDT
Mostly Cloudy
Mostly Cloudy
 Wind from WSW
Wind: WSW 16 mph , 26 km/h
Temperature: 57°F , 14°C
Dew Point: 46°F , 8°C
Humidity: 67%
Barometer: 30.13 inHg , 1020.3 hPa
Clouds: Mostly Cloudy
Visibility: 8 miles , 13 km
Cloud details: Mostly Cloudy 3000 ft
2018/04/20 00:53 KSNS 200053Z 24014KT 8SM BKN030 14/08 A3013 RMK AO2 SLP210 T01390083
 
KMRY - Monterey, California, USA
Distance from station: SSE 49mi, 78km
Updated: Thu, 19-Apr-2018 5:54pm PDT
Mostly Cloudy
Mostly Cloudy
 Wind from SW
Wind: SW 10 mph , 17 km/h, Gust: 21 mph , 33 km/h
Temperature: 55°F , 13°C
Dew Point: 48°F , 9°C
Humidity: 77%
Barometer: 30.14 inHg , 1020.7 hPa
Clouds: Mostly Cloudy
Visibility: 10 miles , 16 km
Cloud details: Mostly Cloudy 1700 ft
2018/04/20 00:54 KMRY 200054Z 23009G18KT 10SM BKN017 13/09 A3014 RMK AO2 SLP219 T01330089
KCCR - Concord, California, USA
Distance from station: N 50mi, 81km
Updated: Thu, 19-Apr-2018 5:53pm PDT
Clear
Clear
 Wind from WNW
Wind: WNW 12 mph , 19 km/h
Temperature: 68°F , 20°C
Dew Point: 45°F , 7°C
Humidity: 43%
Barometer: 30.06 inHg , 1017.9 hPa
Clouds: Clear
Visibility: 10 miles , 16 km
2018/04/20 00:53 KCCR 200053Z 29010KT 10SM CLR 20/07 A3006 RMK AO2 SLP164 T02000072
deformed-offering